sensor_id;sensor_type;location;lat;lon;timestamp;temperature;humidity
3504;DHT22;1766;53.490;10.174;2023-07-31T00:00:49;20.80;64.00
3504;DHT22;1766;53.490;10.174;2023-07-31T00:02:52;20.80;63.90
3504;DHT22;1766;53.490;10.174;2023-07-31T00:04:54;20.80;64.30
3504;DHT22;1766;53.490;10.174;2023-07-31T00:06:56;20.80;64.10
3504;DHT22;1766;53.490;10.174;2023-07-31T00:08:58;20.80;64.00
3504;DHT22;1766;53.490;10.174;2023-07-31T00:11:00;20.80;64.00
3504;DHT22;1766;53.490;10.174;2023-07-31T00:13:01;20.80;63.90
3504;DHT22;1766;53.490;10.174;2023-07-31T00:15:04;20.70;63.90
3504;DHT22;1766;53.490;10.174;2023-07-31T00:17:07;20.80;64.40
3504;DHT22;1766;53.490;10.174;2023-07-31T00:19:09;20.80;64.10
3504;DHT22;1766;53.490;10.174;2023-07-31T00:21:11;20.80;64.00
3504;DHT22;1766;53.490;10.174;2023-07-31T00:23:13;20.80;64.10
3504;DHT22;1766;53.490;10.174;2023-07-31T00:25:15;20.80;64.10
3504;DHT22;1766;53.490;10.174;2023-07-31T00:27:17;20.80;64.00
3504;DHT22;1766;53.490;10.174;2023-07-31T00:29:19;20.70;64.10
3504;DHT22;1766;53.490;10.174;2023-07-31T00:31:21;20.70;64.20
3504;DHT22;1766;53.490;10.174;2023-07-31T00:33:23;20.70;64.20
3504;DHT22;1766;53.490;10.174;2023-07-31T00:35:25;20.70;64.30
3504;DHT22;1766;53.490;10.174;2023-07-31T00:37:27;20.70;64.30
3504;DHT22;1766;53.490;10.174;2023-07-31T00:39:30;20.70;64.40
3504;DHT22;1766;53.490;10.174;2023-07-31T00:41:32;20.70;64.70
3504;DHT22;1766;53.490;10.174;2023-07-31T00:43:34;20.70;64.50
3504;DHT22;1766;53.490;10.174;2023-07-31T00:45:38;20.70;64.50
3504;DHT22;1766;53.490;10.174;2023-07-31T00:47:40;20.70;64.60
3504;DHT22;1766;53.490;10.174;2023-07-31T00:49:43;20.70;64.50
3504;DHT22;1766;53.490;10.174;2023-07-31T00:51:45;20.60;64.70
3504;DHT22;1766;53.490;10.174;2023-07-31T00:53:47;20.70;64.60
3504;DHT22;1766;53.490;10.174;2023-07-31T00:55:49;20.70;64.80
3504;DHT22;1766;53.490;10.174;2023-07-31T00:57:52;20.70;65.00
3504;DHT22;1766;53.490;10.174;2023-07-31T00:59:56;20.60;64.70
3504;DHT22;1766;53.490;10.174;2023-07-31T01:01:58;20.70;64.80
3504;DHT22;1766;53.490;10.174;2023-07-31T01:03:59;20.70;64.90
3504;DHT22;1766;53.490;10.174;2023-07-31T01:06:14;20.70;64.90
3504;DHT22;1766;53.490;10.174;2023-07-31T01:08:22;20.70;65.30
3504;DHT22;1766;53.490;10.174;2023-07-31T01:10:28;20.60;65.00
3504;DHT22;1766;53.490;10.174;2023-07-31T01:12:34;20.70;65.20
3504;DHT22;1766;53.490;10.174;2023-07-31T01:14:38;20.70;65.20
3504;DHT22;1766;53.490;10.174;2023-07-31T01:16:40;20.70;64.70
3504;DHT22;1766;53.490;10.174;2023-07-31T01:18:42;20.70;64.70
3504;DHT22;1766;53.490;10.174;2023-07-31T01:20:56;20.70;64.80
3504;DHT22;1766;53.490;10.174;2023-07-31T01:23:26;20.70;65.10
3504;DHT22;1766;53.490;10.174;2023-07-31T01:25:53;20.70;65.00
3504;DHT22;1766;53.490;10.174;2023-07-31T01:27:59;20.70;65.10
3504;DHT22;1766;53.490;10.174;2023-07-31T01:30:10;20.70;65.00
3504;DHT22;1766;53.490;10.174;2023-07-31T01:32:18;20.70;65.10
3504;DHT22;1766;53.490;10.174;2023-07-31T01:34:21;20.70;65.20
3504;DHT22;1766;53.490;10.174;2023-07-31T01:36:24;20.60;65.00
3504;DHT22;1766;53.490;10.174;2023-07-31T01:38:26;20.70;65.30
3504;DHT22;1766;53.490;10.174;2023-07-31T01:40:28;20.70;64.80
3504;DHT22;1766;53.490;10.174;2023-07-31T01:42:31;20.70;64.90
3504;DHT22;1766;53.490;10.174;2023-07-31T01:44:33;20.60;64.60
3504;DHT22;1766;53.490;10.174;2023-07-31T01:46:34;20.70;64.80
3504;DHT22;1766;53.490;10.174;2023-07-31T01:48:36;20.70;64.80
3504;DHT22;1766;53.490;10.174;2023-07-31T01:50:38;20.70;64.80
3504;DHT22;1766;53.490;10.174;2023-07-31T01:52:40;20.70;64.70
3504;DHT22;1766;53.490;10.174;2023-07-31T01:54:42;20.70;64.70
3504;DHT22;1766;53.490;10.174;2023-07-31T01:56:44;20.70;64.70
3504;DHT22;1766;53.490;10.174;2023-07-31T01:58:47;20.70;64.70
3504;DHT22;1766;53.490;10.174;2023-07-31T02:00:49;20.70;64.90
3504;DHT22;1766;53.490;10.174;2023-07-31T02:02:51;20.70;65.50
3504;DHT22;1766;53.490;10.174;2023-07-31T02:04:53;20.70;64.60
3504;DHT22;1766;53.490;10.174;2023-07-31T02:06:57;20.70;65.10
3504;DHT22;1766;53.490;10.174;2023-07-31T02:09:01;20.70;64.80
3504;DHT22;1766;53.490;10.174;2023-07-31T02:11:04;20.70;65.60
3504;DHT22;1766;53.490;10.174;2023-07-31T02:13:06;20.70;64.70
3504;DHT22;1766;53.490;10.174;2023-07-31T02:15:12;20.60;64.90
3504;DHT22;1766;53.490;10.174;2023-07-31T02:17:14;20.70;65.00
3504;DHT22;1766;53.490;10.174;2023-07-31T02:19:16;20.20;64.30
3504;DHT22;1766;53.490;10.174;2023-07-31T02:21:17;20.70;65.30
3504;DHT22;1766;53.490;10.174;2023-07-31T02:23:20;20.70;65.20
3504;DHT22;1766;53.490;10.174;2023-07-31T02:25:22;20.80;65.60
3504;DHT22;1766;53.490;10.174;2023-07-31T02:27:24;20.60;65.50
3504;DHT22;1766;53.490;10.174;2023-07-31T02:29:28;20.70;65.50
3504;DHT22;1766;53.490;10.174;2023-07-31T02:31:31;20.60;65.30
3504;DHT22;1766;53.490;10.174;2023-07-31T02:33:33;20.70;65.50
3504;DHT22;1766;53.490;10.174;2023-07-31T02:35:35;20.70;65.80
3504;DHT22;1766;53.490;10.174;2023-07-31T02:37:36;20.80;66.00
3504;DHT22;1766;53.490;10.174;2023-07-31T02:39:39;20.80;66.00
3504;DHT22;1766;53.490;10.174;2023-07-31T02:41:41;20.80;66.20
3504;DHT22;1766;53.490;10.174;2023-07-31T02:43:43;20.90;66.10
3504;DHT22;1766;53.490;10.174;2023-07-31T02:45:45;20.80;66.20
3504;DHT22;1766;53.490;10.174;2023-07-31T02:47:48;20.90;66.30
3504;DHT22;1766;53.490;10.174;2023-07-31T02:49:50;20.90;66.20
3504;DHT22;1766;53.490;10.174;2023-07-31T02:51:53;20.90;66.20
3504;DHT22;1766;53.490;10.174;2023-07-31T02:53:55;20.90;66.30
3504;DHT22;1766;53.490;10.174;2023-07-31T02:55:56;20.90;66.40
3504;DHT22;1766;53.490;10.174;2023-07-31T02:57:58;20.90;67.10
3504;DHT22;1766;53.490;10.174;2023-07-31T03:00:00;20.90;66.30
3504;DHT22;1766;53.490;10.174;2023-07-31T03:02:13;20.90;66.50
3504;DHT22;1766;53.490;10.174;2023-07-31T03:04:16;20.90;66.50
3504;DHT22;1766;53.490;10.174;2023-07-31T03:06:18;20.90;66.60
3504;DHT22;1766;53.490;10.174;2023-07-31T03:08:20;20.80;66.60
3504;DHT22;1766;53.490;10.174;2023-07-31T03:10:21;20.90;66.80
3504;DHT22;1766;53.490;10.174;2023-07-31T03:12:23;20.90;66.70
3504;DHT22;1766;53.490;10.174;2023-07-31T03:14:25;20.90;66.80
3504;DHT22;1766;53.490;10.174;2023-07-31T03:16:27;20.90;66.90
3504;DHT22;1766;53.490;10.174;2023-07-31T03:18:28;20.90;67.00
3504;DHT22;1766;53.490;10.174;2023-07-31T03:20:32;20.90;67.10
3504;DHT22;1766;53.490;10.174;2023-07-31T03:22:34;20.90;67.20
3504;DHT22;1766;53.490;10.174;2023-07-31T03:24:36;20.90;67.40
3504;DHT22;1766;53.490;10.174;2023-07-31T03:26:38;20.90;67.60
3504;DHT22;1766;53.490;10.174;2023-07-31T03:28:41;21.00;67.60
3504;DHT22;1766;53.490;10.174;2023-07-31T03:30:43;21.00;67.50
3504;DHT22;1766;53.490;10.174;2023-07-31T03:32:46;21.00;67.50
3504;DHT22;1766;53.490;10.174;2023-07-31T03:34:49;21.00;67.40
3504;DHT22;1766;53.490;10.174;2023-07-31T03:36:52;21.00;67.70
3504;DHT22;1766;53.490;10.174;2023-07-31T03:38:54;21.00;67.70
3504;DHT22;1766;53.490;10.174;2023-07-31T03:40:56;21.00;67.50
3504;DHT22;1766;53.490;10.174;2023-07-31T03:42:59;21.00;67.90
3504;DHT22;1766;53.490;10.174;2023-07-31T03:45:01;21.10;67.90
3504;DHT22;1766;53.490;10.174;2023-07-31T03:47:03;21.10;68.00
3504;DHT22;1766;53.490;10.174;2023-07-31T03:49:06;21.10;68.30
3504;DHT22;1766;53.490;10.174;2023-07-31T03:51:08;21.10;68.10
3504;DHT22;1766;53.490;10.174;2023-07-31T03:53:11;21.10;68.20
3504;DHT22;1766;53.490;10.174;2023-07-31T03:55:14;21.10;68.30
3504;DHT22;1766;53.490;10.174;2023-07-31T03:57:15;20.90;68.70
3504;DHT22;1766;53.490;10.174;2023-07-31T03:59:17;21.10;67.80
3504;DHT22;1766;53.490;10.174;2023-07-31T04:01:20;21.10;68.10
3504;DHT22;1766;53.490;10.174;2023-07-31T04:03:21;21.10;68.30
3504;DHT22;1766;53.490;10.174;2023-07-31T04:05:23;21.10;68.20
3504;DHT22;1766;53.490;10.174;2023-07-31T04:07:25;21.10;68.80
3504;DHT22;1766;53.490;10.174;2023-07-31T04:09:27;21.10;68.80
3504;DHT22;1766;53.490;10.174;2023-07-31T04:11:29;21.10;68.80
3504;DHT22;1766;53.490;10.174;2023-07-31T04:13:31;21.20;68.90
3504;DHT22;1766;53.490;10.174;2023-07-31T04:15:34;21.20;68.90
3504;DHT22;1766;53.490;10.174;2023-07-31T04:17:38;21.20;69.20
3504;DHT22;1766;53.490;10.174;2023-07-31T04:19:40;21.20;68.90
3504;DHT22;1766;53.490;10.174;2023-07-31T04:21:42;21.20;69.00
3504;DHT22;1766;53.490;10.174;2023-07-31T04:23:44;21.20;69.10
3504;DHT22;1766;53.490;10.174;2023-07-31T04:25:47;21.20;69.00
3504;DHT22;1766;53.490;10.174;2023-07-31T04:27:49;21.20;69.30
3504;DHT22;1766;53.490;10.174;2023-07-31T04:29:51;21.20;69.40
3504;DHT22;1766;53.490;10.174;2023-07-31T04:31:53;21.20;69.50
3504;DHT22;1766;53.490;10.174;2023-07-31T04:33:55;21.30;69.20
3504;DHT22;1766;53.490;10.174;2023-07-31T04:35:57;21.20;69.90
3504;DHT22;1766;53.490;10.174;2023-07-31T04:38:00;20.90;69.40
3504;DHT22;1766;53.490;10.174;2023-07-31T04:40:01;21.20;69.80
3504;DHT22;1766;53.490;10.174;2023-07-31T04:42:05;21.30;69.90
3504;DHT22;1766;53.490;10.174;2023-07-31T04:44:07;21.30;69.80
3504;DHT22;1766;53.490;10.174;2023-07-31T04:46:11;21.20;69.20
3504;DHT22;1766;53.490;10.174;2023-07-31T04:48:13;21.40;69.90
3504;DHT22;1766;53.490;10.174;2023-07-31T04:50:15;21.30;69.90
3504;DHT22;1766;53.490;10.174;2023-07-31T04:52:16;21.20;70.00
3504;DHT22;1766;53.490;10.174;2023-07-31T04:54:18;21.30;69.90
3504;DHT22;1766;53.490;10.174;2023-07-31T04:56:20;21.30;69.80
3504;DHT22;1766;53.490;10.174;2023-07-31T04:58:24;21.30;69.70
3504;DHT22;1766;53.490;10.174;2023-07-31T05:00:26;21.30;69.80
3504;DHT22;1766;53.490;10.174;2023-07-31T05:02:28;21.30;69.90
3504;DHT22;1766;53.490;10.174;2023-07-31T05:04:30;21.30;69.80
3504;DHT22;1766;53.490;10.174;2023-07-31T05:06:32;21.20;70.00
3504;DHT22;1766;53.490;10.174;2023-07-31T05:08:34;21.30;69.80
3504;DHT22;1766;53.490;10.174;2023-07-31T05:10:36;21.10;69.50
3504;DHT22;1766;53.490;10.174;2023-07-31T05:12:38;21.30;69.80
3504;DHT22;1766;53.490;10.174;2023-07-31T05:14:43;21.10;69.70
3504;DHT22;1766;53.490;10.174;2023-07-31T05:16:47;21.30;69.40
3504;DHT22;1766;53.490;10.174;2023-07-31T05:18:49;21.30;70.00
3504;DHT22;1766;53.490;10.174;2023-07-31T05:20:51;21.20;70.00
3504;DHT22;1766;53.490;10.174;2023-07-31T05:22:53;21.30;70.10
3504;DHT22;1766;53.490;10.174;2023-07-31T05:24:55;21.30;70.50
3504;DHT22;1766;53.490;10.174;2023-07-31T05:26:57;21.30;70.20
3504;DHT22;1766;53.490;10.174;2023-07-31T05:28:59;21.40;70.30
3504;DHT22;1766;53.490;10.174;2023-07-31T05:31:03;21.40;69.70
3504;DHT22;1766;53.490;10.174;2023-07-31T05:33:06;21.10;70.10
3504;DHT22;1766;53.490;10.174;2023-07-31T05:35:08;21.40;70.30
3504;DHT22;1766;53.490;10.174;2023-07-31T05:37:10;21.40;70.50
3504;DHT22;1766;53.490;10.174;2023-07-31T05:39:12;21.40;70.60
3504;DHT22;1766;53.490;10.174;2023-07-31T05:41:14;21.30;70.10
3504;DHT22;1766;53.490;10.174;2023-07-31T05:43:16;21.30;70.30
3504;DHT22;1766;53.490;10.174;2023-07-31T05:45:18;21.30;70.30
3504;DHT22;1766;53.490;10.174;2023-07-31T05:47:21;21.30;70.50
3504;DHT22;1766;53.490;10.174;2023-07-31T05:49:23;21.30;70.60
3504;DHT22;1766;53.490;10.174;2023-07-31T05:51:24;21.30;70.80
3504;DHT22;1766;53.490;10.174;2023-07-31T05:53:26;21.30;70.50
3504;DHT22;1766;53.490;10.174;2023-07-31T05:55:28;21.30;70.60
3504;DHT22;1766;53.490;10.174;2023-07-31T05:57:30;21.20;70.50
3504;DHT22;1766;53.490;10.174;2023-07-31T05:59:32;21.30;71.00
3504;DHT22;1766;53.490;10.174;2023-07-31T06:01:34;21.30;70.50
3504;DHT22;1766;53.490;10.174;2023-07-31T06:03:38;21.30;70.70
3504;DHT22;1766;53.490;10.174;2023-07-31T06:05:40;21.30;71.40
3504;DHT22;1766;53.490;10.174;2023-07-31T06:07:42;21.30;70.90
3504;DHT22;1766;53.490;10.174;2023-07-31T06:09:44;21.30;70.80
3504;DHT22;1766;53.490;10.174;2023-07-31T06:11:46;21.40;71.00
3504;DHT22;1766;53.490;10.174;2023-07-31T06:13:48;21.40;70.70
3504;DHT22;1766;53.490;10.174;2023-07-31T06:15:50;21.30;71.10
3504;DHT22;1766;53.490;10.174;2023-07-31T06:17:52;21.40;71.20
3504;DHT22;1766;53.490;10.174;2023-07-31T06:19:56;21.40;71.20
3504;DHT22;1766;53.490;10.174;2023-07-31T06:21:57;21.40;71.50
3504;DHT22;1766;53.490;10.174;2023-07-31T06:24:03;21.40;71.40
3504;DHT22;1766;53.490;10.174;2023-07-31T06:26:05;21.40;71.00
3504;DHT22;1766;53.490;10.174;2023-07-31T06:28:09;21.50;71.10
3504;DHT22;1766;53.490;10.174;2023-07-31T06:30:12;21.20;70.60
3504;DHT22;1766;53.490;10.174;2023-07-31T06:32:14;21.50;71.50
3504;DHT22;1766;53.490;10.174;2023-07-31T06:34:16;21.50;71.40
3504;DHT22;1766;53.490;10.174;2023-07-31T06:36:19;21.00;71.50
3504;DHT22;1766;53.490;10.174;2023-07-31T06:38:24;21.50;71.90
3504;DHT22;1766;53.490;10.174;2023-07-31T06:40:28;21.50;71.90
3504;DHT22;1766;53.490;10.174;2023-07-31T06:42:30;21.60;71.50
3504;DHT22;1766;53.490;10.174;2023-07-31T06:44:32;21.60;70.90
3504;DHT22;1766;53.490;10.174;2023-07-31T06:46:35;21.60;71.70
3504;DHT22;1766;53.490;10.174;2023-07-31T06:48:41;21.60;71.20
3504;DHT22;1766;53.490;10.174;2023-07-31T06:50:43;21.60;71.40
3504;DHT22;1766;53.490;10.174;2023-07-31T06:52:47;21.60;70.90
3504;DHT22;1766;53.490;10.174;2023-07-31T06:55:01;21.10;71.20
3504;DHT22;1766;53.490;10.174;2023-07-31T06:57:06;21.60;72.30
3504;DHT22;1766;53.490;10.174;2023-07-31T06:59:08;21.60;72.10
3504;DHT22;1766;53.490;10.174;2023-07-31T07:01:10;21.60;72.30
3504;DHT22;1766;53.490;10.174;2023-07-31T07:03:12;21.60;72.30
3504;DHT22;1766;53.490;10.174;2023-07-31T07:05:16;21.60;72.20
3504;DHT22;1766;53.490;10.174;2023-07-31T07:07:18;21.60;72.80
3504;DHT22;1766;53.490;10.174;2023-07-31T07:09:20;21.70;72.60
3504;DHT22;1766;53.490;10.174;2023-07-31T07:11:22;21.70;72.60
3504;DHT22;1766;53.490;10.174;2023-07-31T07:13:25;21.80;72.20
3504;DHT22;1766;53.490;10.174;2023-07-31T07:15:27;21.80;72.20
3504;DHT22;1766;53.490;10.174;2023-07-31T07:17:30;21.90;72.80
3504;DHT22;1766;53.490;10.174;2023-07-31T07:19:32;21.80;72.60
3504;DHT22;1766;53.490;10.174;2023-07-31T07:21:34;21.80;72.70
3504;DHT22;1766;53.490;10.174;2023-07-31T07:23:37;21.90;72.90
3504;DHT22;1766;53.490;10.174;2023-07-31T07:25:40;21.80;72.50
3504;DHT22;1766;53.490;10.174;2023-07-31T07:27:43;21.90;72.80
3504;DHT22;1766;53.490;10.174;2023-07-31T07:29:46;21.90;72.70
3504;DHT22;1766;53.490;10.174;2023-07-31T07:31:48;21.90;73.00
3504;DHT22;1766;53.490;10.174;2023-07-31T07:33:50;21.90;72.70
3504;DHT22;1766;53.490;10.174;2023-07-31T07:35:52;21.90;72.90
3504;DHT22;1766;53.490;10.174;2023-07-31T07:37:54;21.90;72.90
3504;DHT22;1766;53.490;10.174;2023-07-31T07:39:57;21.80;72.80
3504;DHT22;1766;53.490;10.174;2023-07-31T07:42:00;22.00;73.00
3504;DHT22;1766;53.490;10.174;2023-07-31T07:44:02;22.00;72.70
3504;DHT22;1766;53.490;10.174;2023-07-31T07:46:07;22.00;72.80
3504;DHT22;1766;53.490;10.174;2023-07-31T07:48:08;22.00;72.40
3504;DHT22;1766;53.490;10.174;2023-07-31T07:50:10;22.00;72.30
3504;DHT22;1766;53.490;10.174;2023-07-31T07:52:12;22.00;72.70
3504;DHT22;1766;53.490;10.174;2023-07-31T07:54:14;22.80;73.80
3504;DHT22;1766;53.490;10.174;2023-07-31T07:56:17;22.00;73.00
3504;DHT22;1766;53.490;10.174;2023-07-31T07:58:20;22.00;72.90
3504;DHT22;1766;53.490;10.174;2023-07-31T08:00:22;22.00;73.40
3504;DHT22;1766;53.490;10.174;2023-07-31T08:02:24;22.00;73.10
3504;DHT22;1766;53.490;10.174;2023-07-31T08:04:26;22.00;73.10
3504;DHT22;1766;53.490;10.174;2023-07-31T08:06:28;22.10;73.20
3504;DHT22;1766;53.490;10.174;2023-07-31T08:08:30;22.10;73.20
3504;DHT22;1766;53.490;10.174;2023-07-31T08:10:32;22.10;73.10
3504;DHT22;1766;53.490;10.174;2023-07-31T08:12:34;22.10;73.30
3504;DHT22;1766;53.490;10.174;2023-07-31T08:14:38;22.10;73.40
3504;DHT22;1766;53.490;10.174;2023-07-31T08:16:40;22.80;74.00
3504;DHT22;1766;53.490;10.174;2023-07-31T08:18:41;22.20;73.70
3504;DHT22;1766;53.490;10.174;2023-07-31T08:20:43;22.20;74.00
3504;DHT22;1766;53.490;10.174;2023-07-31T08:22:45;22.20;73.80
3504;DHT22;1766;53.490;10.174;2023-07-31T08:24:47;22.20;74.10
3504;DHT22;1766;53.490;10.174;2023-07-31T08:26:49;22.10;73.50
3504;DHT22;1766;53.490;10.174;2023-07-31T08:28:50;22.30;73.90
3504;DHT22;1766;53.490;10.174;2023-07-31T08:30:54;22.20;74.00
3504;DHT22;1766;53.490;10.174;2023-07-31T08:32:56;22.30;74.10
3504;DHT22;1766;53.490;10.174;2023-07-31T08:34:58;22.40;74.30
3504;DHT22;1766;53.490;10.174;2023-07-31T08:37:00;22.40;74.70
3504;DHT22;1766;53.490;10.174;2023-07-31T08:39:02;22.40;74.00
3504;DHT22;1766;53.490;10.174;2023-07-31T08:41:05;22.30;73.90
3504;DHT22;1766;53.490;10.174;2023-07-31T08:43:09;22.40;73.90
3504;DHT22;1766;53.490;10.174;2023-07-31T08:45:14;22.40;73.80
3504;DHT22;1766;53.490;10.174;2023-07-31T08:47:22;22.40;74.00
3504;DHT22;1766;53.490;10.174;2023-07-31T08:49:26;22.40;74.30
3504;DHT22;1766;53.490;10.174;2023-07-31T08:51:28;22.40;74.10
3504;DHT22;1766;53.490;10.174;2023-07-31T08:53:29;22.30;74.30
3504;DHT22;1766;53.490;10.174;2023-07-31T08:55:32;22.40;73.80
3504;DHT22;1766;53.490;10.174;2023-07-31T08:57:37;22.40;74.20
3504;DHT22;1766;53.490;10.174;2023-07-31T08:59:40;22.40;74.30
3504;DHT22;1766;53.490;10.174;2023-07-31T09:01:47;22.40;74.60
3504;DHT22;1766;53.490;10.174;2023-07-31T09:03:53;22.50;74.80
3504;DHT22;1766;53.490;10.174;2023-07-31T09:05:56;22.50;74.70
3504;DHT22;1766;53.490;10.174;2023-07-31T09:08:00;22.50;74.70
3504;DHT22;1766;53.490;10.174;2023-07-31T09:10:04;22.60;75.00
3504;DHT22;1766;53.490;10.174;2023-07-31T09:12:07;22.70;75.00
3504;DHT22;1766;53.490;10.174;2023-07-31T09:14:10;22.60;74.60
3504;DHT22;1766;53.490;10.174;2023-07-31T09:16:12;22.60;74.50
3504;DHT22;1766;53.490;10.174;2023-07-31T09:18:14;22.70;74.60
3504;DHT22;1766;53.490;10.174;2023-07-31T09:20:21;22.70;74.30
3504;DHT22;1766;53.490;10.174;2023-07-31T09:22:32;22.60;74.50
3504;DHT22;1766;53.490;10.174;2023-07-31T09:24:35;22.70;74.60
3504;DHT22;1766;53.490;10.174;2023-07-31T09:26:37;22.70;74.40
3504;DHT22;1766;53.490;10.174;2023-07-31T09:28:39;22.70;74.70
3504;DHT22;1766;53.490;10.174;2023-07-31T09:30:46;22.60;74.30
3504;DHT22;1766;53.490;10.174;2023-07-31T09:32:50;22.70;74.80
3504;DHT22;1766;53.490;10.174;2023-07-31T09:34:53;22.70;74.90
3504;DHT22;1766;53.490;10.174;2023-07-31T09:37:01;22.70;74.60
3504;DHT22;1766;53.490;10.174;2023-07-31T09:39:04;22.80;74.80
3504;DHT22;1766;53.490;10.174;2023-07-31T09:41:06;22.80;74.50
3504;DHT22;1766;53.490;10.174;2023-07-31T09:43:10;22.80;74.40
3504;DHT22;1766;53.490;10.174;2023-07-31T09:45:14;22.80;74.70
3504;DHT22;1766;53.490;10.174;2023-07-31T09:47:22;22.80;74.70
3504;DHT22;1766;53.490;10.174;2023-07-31T09:49:25;22.80;74.50
3504;DHT22;1766;53.490;10.174;2023-07-31T09:51:27;22.80;74.20
3504;DHT22;1766;53.490;10.174;2023-07-31T09:53:30;22.80;74.40
3504;DHT22;1766;53.490;10.174;2023-07-31T09:55:32;22.80;74.50
3504;DHT22;1766;53.490;10.174;2023-07-31T09:57:39;22.80;75.00
3504;DHT22;1766;53.490;10.174;2023-07-31T09:59:42;22.80;75.10
3504;DHT22;1766;53.490;10.174;2023-07-31T10:01:45;22.80;74.80
3504;DHT22;1766;53.490;10.174;2023-07-31T10:03:48;22.90;75.40
3504;DHT22;1766;53.490;10.174;2023-07-31T10:05:52;22.90;75.10
3504;DHT22;1766;53.490;10.174;2023-07-31T10:07:55;22.90;74.90
3504;DHT22;1766;53.490;10.174;2023-07-31T10:10:00;22.90;75.00
3504;DHT22;1766;53.490;10.174;2023-07-31T10:14:13;22.90;75.20
3504;DHT22;1766;53.490;10.174;2023-07-31T10:22:48;22.90;75.20
3504;DHT22;1766;53.490;10.174;2023-07-31T10:24:52;22.90;75.10
3504;DHT22;1766;53.490;10.174;2023-07-31T10:26:58;22.90;75.20
3504;DHT22;1766;53.490;10.174;2023-07-31T10:29:01;22.80;75.20
3504;DHT22;1766;53.490;10.174;2023-07-31T10:31:04;22.80;74.90
3504;DHT22;1766;53.490;10.174;2023-07-31T10:33:07;22.80;75.20
3504;DHT22;1766;53.490;10.174;2023-07-31T10:35:10;22.80;75.30
3504;DHT22;1766;53.490;10.174;2023-07-31T10:37:20;22.80;75.10
3504;DHT22;1766;53.490;10.174;2023-07-31T10:39:38;22.80;75.00
3504;DHT22;1766;53.490;10.174;2023-07-31T10:41:40;22.60;74.30
3504;DHT22;1766;53.490;10.174;2023-07-31T10:43:45;22.70;74.80
3504;DHT22;1766;53.490;10.174;2023-07-31T10:45:48;22.70;75.00
3504;DHT22;1766;53.490;10.174;2023-07-31T10:47:59;22.60;75.00
3504;DHT22;1766;53.490;10.174;2023-07-31T10:50:12;22.60;75.40
3504;DHT22;1766;53.490;10.174;2023-07-31T10:52:19;22.60;75.50
3504;DHT22;1766;53.490;10.174;2023-07-31T10:54:24;22.60;75.80
3504;DHT22;1766;53.490;10.174;2023-07-31T10:56:26;22.70;75.40
3504;DHT22;1766;53.490;10.174;2023-07-31T10:58:27;22.60;75.50
3504;DHT22;1766;53.490;10.174;2023-07-31T11:00:30;22.60;75.90
3504;DHT22;1766;53.490;10.174;2023-07-31T11:02:33;22.60;76.10
3504;DHT22;1766;53.490;10.174;2023-07-31T11:04:35;22.70;76.20
3504;DHT22;1766;53.490;10.174;2023-07-31T11:06:37;22.70;76.50
3504;DHT22;1766;53.490;10.174;2023-07-31T11:08:42;22.80;76.60
3504;DHT22;1766;53.490;10.174;2023-07-31T11:10:46;22.80;77.10
3504;DHT22;1766;53.490;10.174;2023-07-31T11:12:49;22.90;77.20
3504;DHT22;1766;53.490;10.174;2023-07-31T11:14:54;22.90;76.90
3504;DHT22;1766;53.490;10.174;2023-07-31T11:16:58;23.00;77.40
3504;DHT22;1766;53.490;10.174;2023-07-31T11:19:00;23.00;77.10
3504;DHT22;1766;53.490;10.174;2023-07-31T11:21:02;23.10;77.30
3504;DHT22;1766;53.490;10.174;2023-07-31T11:23:06;23.10;77.20
3504;DHT22;1766;53.490;10.174;2023-07-31T11:25:10;23.20;77.70
3504;DHT22;1766;53.490;10.174;2023-07-31T11:27:12;23.20;77.30
3504;DHT22;1766;53.490;10.174;2023-07-31T11:29:17;23.20;77.20
3504;DHT22;1766;53.490;10.174;2023-07-31T11:31:20;23.30;77.90
3504;DHT22;1766;53.490;10.174;2023-07-31T11:33:24;23.30;77.30
3504;DHT22;1766;53.490;10.174;2023-07-31T11:35:26;23.30;77.80
3504;DHT22;1766;53.490;10.174;2023-07-31T11:37:39;23.30;77.10
3504;DHT22;1766;53.490;10.174;2023-07-31T11:39:41;23.40;77.50
3504;DHT22;1766;53.490;10.174;2023-07-31T11:41:43;23.30;76.40
3504;DHT22;1766;53.490;10.174;2023-07-31T11:43:48;23.40;76.60
3504;DHT22;1766;53.490;10.174;2023-07-31T11:45:52;23.40;75.90
3504;DHT22;1766;53.490;10.174;2023-07-31T11:47:56;23.40;77.20
3504;DHT22;1766;53.490;10.174;2023-07-31T11:50:00;23.30;77.30
3504;DHT22;1766;53.490;10.174;2023-07-31T11:52:02;22.50;76.10
3504;DHT22;1766;53.490;10.174;2023-07-31T11:54:05;23.30;77.10
3504;DHT22;1766;53.490;10.174;2023-07-31T11:56:08;23.40;76.90
3504;DHT22;1766;53.490;10.174;2023-07-31T11:58:13;23.40;77.50
3504;DHT22;1766;53.490;10.174;2023-07-31T12:00:17;23.40;77.30
3504;DHT22;1766;53.490;10.174;2023-07-31T12:02:19;23.40;77.30
3504;DHT22;1766;53.490;10.174;2023-07-31T12:04:21;23.40;76.70
3504;DHT22;1766;53.490;10.174;2023-07-31T12:06:32;23.60;76.80
3504;DHT22;1766;53.490;10.174;2023-07-31T12:08:36;23.40;77.20
3504;DHT22;1766;53.490;10.174;2023-07-31T12:10:38;23.40;76.60
3504;DHT22;1766;53.490;10.174;2023-07-31T12:12:41;23.30;76.90
3504;DHT22;1766;53.490;10.174;2023-07-31T12:14:42;22.60;75.40
3504;DHT22;1766;53.490;10.174;2023-07-31T12:16:44;23.30;76.60
3504;DHT22;1766;53.490;10.174;2023-07-31T12:18:49;23.30;76.70
3504;DHT22;1766;53.490;10.174;2023-07-31T12:20:55;23.30;77.00
3504;DHT22;1766;53.490;10.174;2023-07-31T12:23:01;23.30;77.70
3504;DHT22;1766;53.490;10.174;2023-07-31T12:25:04;23.30;77.80
3504;DHT22;1766;53.490;10.174;2023-07-31T12:27:09;23.40;77.30
3504;DHT22;1766;53.490;10.174;2023-07-31T12:29:12;23.40;78.20
3504;DHT22;1766;53.490;10.174;2023-07-31T12:31:14;22.70;76.50
3504;DHT22;1766;53.490;10.174;2023-07-31T12:33:19;23.40;78.10
3504;DHT22;1766;53.490;10.174;2023-07-31T12:35:21;23.40;78.10
3504;DHT22;1766;53.490;10.174;2023-07-31T12:37:22;23.50;77.40
3504;DHT22;1766;53.490;10.174;2023-07-31T12:39:26;23.40;76.80
3504;DHT22;1766;53.490;10.174;2023-07-31T12:41:29;23.50;77.40
3504;DHT22;1766;53.490;10.174;2023-07-31T12:43:30;23.50;78.30
3504;DHT22;1766;53.490;10.174;2023-07-31T12:45:33;23.50;77.40
3504;DHT22;1766;53.490;10.174;2023-07-31T12:47:35;23.00;77.30
3504;DHT22;1766;53.490;10.174;2023-07-31T12:49:37;23.50;77.50
3504;DHT22;1766;53.490;10.174;2023-07-31T12:51:39;23.40;77.40
3504;DHT22;1766;53.490;10.174;2023-07-31T12:53:41;23.50;77.80
3504;DHT22;1766;53.490;10.174;2023-07-31T12:55:44;23.50;77.80
3504;DHT22;1766;53.490;10.174;2023-07-31T12:57:46;23.50;78.00
3504;DHT22;1766;53.490;10.174;2023-07-31T12:59:48;22.40;76.90
3504;DHT22;1766;53.490;10.174;2023-07-31T13:01:49;22.30;76.60
3504;DHT22;1766;53.490;10.174;2023-07-31T13:03:51;23.60;77.90
3504;DHT22;1766;53.490;10.174;2023-07-31T13:05:53;23.60;78.10
3504;DHT22;1766;53.490;10.174;2023-07-31T13:07:55;23.60;78.70
3504;DHT22;1766;53.490;10.174;2023-07-31T13:09:57;23.60;79.10
3504;DHT22;1766;53.490;10.174;2023-07-31T13:12:00;23.70;78.40
3504;DHT22;1766;53.490;10.174;2023-07-31T13:14:02;23.60;78.10
3504;DHT22;1766;53.490;10.174;2023-07-31T13:16:04;23.70;78.30
3504;DHT22;1766;53.490;10.174;2023-07-31T13:18:06;23.60;78.60